Terminal Aerodrome Forecast
Issued by NWS

Home | Current Version | Previous Version | Text Only | Print | Product List | Glossary On
Versions: 1 2 3 4 5 6 7 8 9 10 11 12 13 14 15 16 17 18 19 20 21 22 23 24
000
FTUS45 KGJT 192331
TAFASE
TAF
KASE 192331Z 2000/2024 19012G18KT P6SM SCT120 BKN200
     FM200400 15009KT P6SM VCSH OVC080 WS020/17040KT
     FM200900 16006KT 6SM -SHRASN OVC030
     FM201100 22005KT 1SM -SHRASN OVC010
     FM201900 31007KT 2SM -SHSN OVC025=

USA.gov is the U.S. government's official web portal to all federal, state and local government web resources and services.